Time;durP1;ratioP1;P1;durP2;ratioP2;P2;SDS_P1;SDS_P2;PMS_P1;PMS_P2;Temp;Humidity;BMP_temperature;BMP_pressure;BME280_temperature;BME280_humidity;BME280_pressure;Samples;Min_cycle;Max_cycle;Signal;HPM_P1;HPM_P2
2021/09/03 00:03:07;;;;;;;4.40;4.00;;;17.30;34.00;;;;;;10535994;28;20231;-80
2021/09/03 00:08:13;;;;;;;3.47;3.27;;;17.30;33.80;;;;;;10532683;28;20700;-79
2021/09/03 00:13:19;;;;;;;4.63;4.23;;;17.20;34.00;;;;;;10530260;28;20254;-79
2021/09/03 00:18:23;;;;;;;4.60;4.20;;;17.10;34.00;;;;;;10526208;28;20232;-79
2021/09/03 00:23:28;;;;;;;5.33;4.07;;;17.10;34.00;;;;;;10523499;28;20231;-79
2021/09/03 00:28:31;;;;;;;4.30;3.90;;;17.00;33.90;;;;;;10528394;28;20223;-78
2021/09/03 00:33:34;;;;;;;3.80;3.50;;;17.00;33.90;;;;;;10527994;28;20880;-79
2021/09/03 00:38:39;;;;;;;3.70;3.40;;;16.90;33.80;;;;;;10533186;28;20231;-80
2021/09/03 00:43:43;;;;;;;4.17;3.80;;;16.90;33.80;;;;;;10532443;28;20255;-79
2021/09/03 00:48:46;;;;;;;3.70;3.40;;;16.90;33.80;;;;;;10531709;28;20590;-79
2021/09/03 00:53:51;;;;;;;3.47;3.17;;;16.80;33.70;;;;;;10529601;28;20742;-79
2021/09/03 00:58:54;;;;;;;3.97;3.53;;;16.80;33.70;;;;;;10526343;28;20230;-79
2021/09/03 01:03:57;;;;;;;3.23;3.03;;;16.80;33.70;;;;;;10524999;28;20226;-79
2021/09/03 01:09:02;;;;;;;3.20;3.00;;;16.80;33.70;;;;;;10534757;28;20226;-80
2021/09/03 01:14:05;;;;;;;3.73;3.43;;;16.70;33.70;;;;;;10534788;28;20243;-80
2021/09/03 01:19:09;;;;;;;3.20;3.00;;;16.60;33.50;;;;;;10540052;28;20223;-80
2021/09/03 01:24:17;;;;;;;3.37;3.07;;;16.60;34.00;;;;;;10540926;28;20638;-80
2021/09/03 01:29:20;;;;;;;4.53;3.00;;;16.60;34.50;;;;;;10537973;28;20227;-80
2021/09/03 01:34:23;;;;;;;3.40;3.20;;;16.50;33.40;;;;;;10535742;28;20238;-80
2021/09/03 01:39:28;;;;;;;3.00;2.80;;;16.50;33.80;;;;;;10540343;28;20220;-80
2021/09/03 01:44:31;;;;;;;2.70;2.50;;;16.50;34.20;;;;;;10539300;28;20228;-80
2021/09/03 01:49:34;;;;;;;2.67;2.47;;;16.40;33.40;;;;;;10540198;28;20230;-80
2021/09/03 01:54:39;;;;;;;2.63;2.43;;;16.30;33.70;;;;;;10534249;28;20605;-80
2021/09/03 01:59:42;;;;;;;2.53;2.33;;;16.30;34.00;;;;;;10540801;28;20227;-80
2021/09/03 02:04:45;;;;;;;2.70;2.50;;;16.20;33.80;;;;;;10539152;28;20238;-80
2021/09/03 02:09:50;;;;;;;3.77;2.50;;;16.10;33.80;;;;;;10539019;28;20644;-80
2021/09/03 02:14:55;;;;;;;2.70;2.50;;;16.10;34.20;;;;;;10533823;28;20223;-80
2021/09/03 02:19:58;;;;;;;2.80;2.60;;;15.90;34.30;;;;;;10541963;27;20295;-80
2021/09/03 02:25:03;;;;;;;2.83;2.63;;;15.90;34.10;;;;;;10536927;28;20242;-81
2021/09/03 02:30:08;;;;;;;3.00;2.80;;;15.80;34.40;;;;;;10536096;28;20571;-80
2021/09/03 02:35:13;;;;;;;2.97;2.77;;;15.80;34.70;;;;;;10538324;28;20696;-80
2021/09/03 02:40:18;;;;;;;3.37;3.07;;;15.70;34.50;;;;;;10535620;28;20622;-80
2021/09/03 02:45:22;;;;;;;4.07;2.60;;;15.70;34.60;;;;;;10536412;28;20236;-80
2021/09/03 02:50:25;;;;;;;2.93;2.63;;;15.60;34.40;;;;;;10540188;28;20230;-80
2021/09/03 02:55:30;;;;;;;2.87;2.67;;;15.60;34.40;;;;;;10535574;28;20233;-80
2021/09/03 03:00:34;;;;;;;3.13;2.83;;;15.60;34.70;;;;;;10538569;28;20228;-80
2021/09/03 03:05:38;;;;;;;2.83;2.63;;;15.50;34.60;;;;;;10537704;28;20784;-80
2021/09/03 03:10:42;;;;;;;2.60;2.40;;;15.50;34.30;;;;;;10538623;28;20212;-79
2021/09/03 03:15:46;;;;;;;2.57;2.37;;;15.50;34.60;;;;;;10530787;28;20219;-80
2021/09/03 03:20:50;;;;;;;2.30;2.10;;;15.40;34.40;;;;;;10537360;28;20281;-79
2021/09/03 03:25:55;;;;;;;2.20;2.10;;;15.40;34.60;;;;;;10532968;28;20220;-80
2021/09/03 03:31:00;;;;;;;2.40;2.20;;;15.30;34.60;;;;;;10527801;28;20220;-80
2021/09/03 03:36:04;;;;;;;2.40;2.20;;;15.30;34.80;;;;;;10532363;28;20227;-80
2021/09/03 03:41:11;;;;;;;2.60;2.40;;;15.30;34.60;;;;;;10535312;28;20306;-80
2021/09/03 03:46:14;;;;;;;2.50;2.30;;;15.20;34.80;;;;;;10532714;28;20228;-79
2021/09/03 03:51:18;;;;;;;2.80;2.60;;;15.10;34.50;;;;;;10534344;28;20621;-80
2021/09/03 03:56:23;;;;;;;3.10;2.90;;;15.10;34.60;;;;;;10539089;28;21900;-79
2021/09/03 04:01:30;;;;;;;2.80;2.53;;;15.00;34.70;;;;;;10534377;28;20223;-80
2021/09/03 04:06:33;;;;;;;2.47;2.27;;;14.90;35.10;;;;;;10535754;28;20234;-79
2021/09/03 04:11:41;;;;;;;1.97;1.87;;;14.90;34.70;;;;;;10535057;28;20219;-79
2021/09/03 04:16:46;;;;;;;2.00;1.90;;;14.80;35.00;;;;;;10532589;28;20227;-79
2021/09/03 04:21:50;;;;;;;2.00;1.90;;;14.80;34.90;;;;;;10538701;28;20223;-80
2021/09/03 04:26:59;;;;;;;2.63;2.43;;;14.70;34.80;;;;;;10535170;28;20238;-79
2021/09/03 04:32:08;;;;;;;2.63;2.33;;;14.70;35.20;;;;;;10530348;28;20226;-79
2021/09/03 04:37:12;;;;;;;2.80;2.60;;;14.70;35.50;;;;;;10538605;28;20751;-80
2021/09/03 04:42:17;;;;;;;2.63;2.43;;;14.60;34.90;;;;;;10533430;28;20238;-80
2021/09/03 04:47:26;;;;;;;2.70;2.50;;;14.60;35.20;;;;;;10535279;28;20237;-80
2021/09/03 04:52:29;;;;;;;3.40;3.10;;;14.50;35.70;;;;;;10527768;28;20223;-79
2021/09/03 04:57:39;;;;;;;3.90;2.80;;;14.50;35.30;;;;;;10546500;28;20218;-80
2021/09/03 05:02:43;;;;;;;3.23;2.97;;;14.50;36.00;;;;;;10541354;28;20234;-80
2021/09/03 05:07:46;;;;;;;3.10;2.90;;;14.40;35.50;;;;;;10544370;27;20229;-80
2021/09/03 05:12:51;;;;;;;2.83;2.40;;;14.40;35.40;;;;;;10540313;28;20287;-79
2021/09/03 05:17:55;;;;;;;2.73;2.53;;;14.40;35.80;;;;;;10544750;28;20223;-79
2021/09/03 05:22:58;;;;;;;3.93;2.37;;;14.40;35.80;;;;;;10538405;28;20672;-80
2021/09/03 05:28:03;;;;;;;2.40;2.20;;;14.40;35.80;;;;;;10538278;28;20235;-79
2021/09/03 05:33:07;;;;;;;3.00;2.60;;;14.30;36.10;;;;;;10541728;28;20223;-79
2021/09/03 05:38:12;;;;;;;3.33;3.03;;;14.40;36.30;;;;;;10539227;28;20234;-79
2021/09/03 05:43:20;;;;;;;4.23;3.30;;;14.30;36.60;;;;;;10539525;28;20224;-80
2021/09/03 05:48:26;;;;;;;4.10;3.70;;;14.40;37.20;;;;;;10536565;28;20229;-79
2021/09/03 05:53:29;;;;;;;3.57;3.27;;;14.40;37.40;;;;;;10532377;28;20777;-79
2021/09/03 05:58:36;;;;;;;3.57;3.27;;;14.50;37.50;;;;;;10537854;28;20230;-80
2021/09/03 06:03:39;;;;;;;3.27;3.07;;;14.50;38.60;;;;;;10531632;28;20234;-79
2021/09/03 06:08:42;;;;;;;3.70;3.40;;;14.60;37.90;;;;;;10534909;28;20224;-79
2021/09/03 06:13:47;;;;;;;4.10;3.80;;;14.80;38.20;;;;;;10533803;28;20230;-80
2021/09/03 06:18:50;;;;;;;3.40;3.10;;;14.90;39.10;;;;;;10536726;28;20219;-80
2021/09/03 06:23:53;;;;;;;3.97;3.67;;;15.00;38.80;;;;;;10536505;28;20230;-80
2021/09/03 06:28:58;;;;;;;3.90;3.60;;;15.10;39.10;;;;;;10534770;28;20259;-80
2021/09/03 06:34:01;;;;;;;3.93;3.63;;;15.20;40.00;;;;;;10531237;28;20227;-80
2021/09/03 06:39:05;;;;;;;4.37;3.97;;;15.30;39.50;;;;;;10532733;28;20234;-80
2021/09/03 06:44:09;;;;;;;4.43;4.03;;;15.40;39.80;;;;;;10534501;28;20222;-80
2021/09/03 06:49:20;;;;;;;4.40;4.00;;;15.50;40.90;;;;;;10534134;28;20234;-80
2021/09/03 06:54:23;;;;;;;5.87;4.33;;;15.70;42.60;;;;;;10537406;27;20238;-80
2021/09/03 06:59:28;;;;;;;5.17;4.70;;;15.80;40.90;;;;;;10533048;28;20227;-80
2021/09/03 07:04:31;;;;;;;6.90;5.53;;;15.90;41.40;;;;;;10535785;28;20227;-80
2021/09/03 07:09:34;;;;;;;4.83;4.43;;;16.10;40.90;;;;;;10532602;28;20233;-80
2021/09/03 07:14:40;;;;;;;5.50;5.00;;;16.20;41.00;;;;;;10527237;28;20254;-78
2021/09/03 07:19:43;;;;;;;5.33;4.67;;;16.40;42.20;;;;;;10526867;28;20298;-78
2021/09/03 07:24:46;;;;;;;6.53;5.17;;;16.50;41.60;;;;;;10527576;28;20723;-76
2021/09/03 07:29:51;;;;;;;5.63;4.67;;;16.70;41.70;;;;;;10522334;28;20235;-77
2021/09/03 07:34:54;;;;;;;5.23;4.73;;;16.80;42.80;;;;;;10525667;28;20231;-77
2021/09/03 07:39:57;;;;;;;4.73;4.33;;;17.00;42.10;;;;;;10524499;28;20215;-77
2021/09/03 07:45:02;;;;;;;8.17;4.53;;;17.20;42.00;;;;;;10526209;28;20312;-77
2021/09/03 07:50:07;;;;;;;4.63;4.23;;;17.40;43.40;;;;;;10523889;28;20230;-77
2021/09/03 07:55:10;;;;;;;4.70;4.30;;;17.70;42.70;;;;;;10524816;28;20307;-75
2021/09/03 08:00:16;;;;;;;4.63;3.83;;;17.90;42.20;;;;;;10526357;28;20254;-78
2021/09/03 08:05:20;;;;;;;4.07;3.77;;;18.20;42.20;;;;;;10524865;28;20231;-78
2021/09/03 08:10:23;;;;;;;4.97;4.20;;;18.50;41.90;;;;;;10524104;28;20232;-79
2021/09/03 08:15:28;;;;;;;4.00;3.67;;;18.90;41.50;;;;;;10525658;28;20267;-78
2021/09/03 08:20:32;;;;;;;5.23;4.73;;;19.20;41.30;;;;;;10523915;28;20222;-79
2021/09/03 08:25:36;;;;;;;4.10;3.60;;;19.60;40.60;;;;;;10532354;28;20223;-77
2021/09/03 08:30:40;;;;;;;4.23;3.83;;;19.90;40.30;;;;;;10535165;28;20230;-79
2021/09/03 08:35:50;;;;;;;4.70;4.20;;;20.30;40.20;;;;;;10519228;28;20242;-76
2021/09/03 08:40:55;;;;;;;4.67;4.27;;;20.60;39.20;;;;;;10582198;28;20422;-77
2021/09/03 08:46:11;;;;;;;3.90;3.60;;;20.90;39.40;;;;;;10541754;28;20224;-76
2021/09/03 08:51:17;;;;;;;4.07;3.77;;;21.30;38.10;;;;;;10541763;28;20210;-76
2021/09/03 08:56:38;;;;;;;4.50;4.10;;;21.50;38.10;;;;;;10548108;28;20235;-78
2021/09/03 09:01:42;;;;;;;4.07;3.70;;;21.80;38.10;;;;;;10540014;28;20588;-79
2021/09/03 09:07:01;;;;;;;4.40;3.70;;;22.10;37.80;;;;;;10527057;28;20243;-78
2021/09/03 09:12:07;;;;;;;4.17;3.60;;;22.30;36.80;;;;;;10530899;28;20212;-75
2021/09/03 09:17:11;;;;;;;4.10;3.80;;;22.60;37.00;;;;;;10534827;28;20223;-78
2021/09/03 09:22:14;;;;;;;4.27;3.97;;;22.80;36.40;;;;;;10533172;28;20340;-76
2021/09/03 09:27:24;;;;;;;10.87;9.90;;;23.10;36.60;;;;;;10530657;28;20240;-77
2021/09/03 09:32:29;;;;;;;6.27;5.77;;;23.30;34.70;;;;;;10531568;28;20227;-77
2021/09/03 09:37:33;;;;;;;4.37;4.07;;;23.50;35.10;;;;;;10531880;28;20220;-77
2021/09/03 09:42:37;;;;;;;4.60;3.93;;;23.60;35.50;;;;;;10528598;28;20224;-77
2021/09/03 09:47:43;;;;;;;3.97;3.67;;;23.80;35.20;;;;;;10531472;28;20227;-78
2021/09/03 09:52:46;;;;;;;3.80;3.50;;;24.00;34.10;;;;;;10530653;28;20219;-78
2021/09/03 09:57:51;;;;;;;4.57;3.60;;;24.30;34.60;;;;;;10530979;28;20223;-77
2021/09/03 10:02:56;;;;;;;4.13;3.83;;;24.40;33.30;;;;;;10530267;28;20832;-77
2021/09/03 10:08:00;;;;;;;4.30;4.00;;;24.60;33.30;;;;;;10534379;28;20228;-77
2021/09/03 10:13:03;;;;;;;4.37;3.97;;;24.70;33.80;;;;;;10537112;28;20674;-78
2021/09/03 10:18:08;;;;;;;4.20;3.80;;;24.90;33.20;;;;;;10540567;28;20278;-78
2021/09/03 10:23:11;;;;;;;4.17;3.77;;;25.10;32.40;;;;;;10535173;28;20228;-76
2021/09/03 10:28:14;;;;;;;3.87;3.47;;;25.20;32.50;;;;;;10533365;28;20228;-78
2021/09/03 10:33:19;;;;;;;4.47;3.70;;;25.30;32.30;;;;;;10531894;28;20230;-78
2021/09/03 10:38:29;;;;;;;3.90;3.60;;;25.40;31.20;;;;;;10533992;28;20234;-78
2021/09/03 10:43:43;;;;;;;3.90;3.60;;;25.60;30.40;;;;;;10532725;28;20234;-77
2021/09/03 10:48:51;;;;;;;3.97;3.67;;;25.70;29.50;;;;;;10536994;28;20219;-78
2021/09/03 10:53:56;;;;;;;3.70;3.40;;;25.80;29.60;;;;;;10532584;28;20234;-78
2021/09/03 10:59:04;;;;;;;3.93;3.60;;;25.90;30.20;;;;;;10533917;28;20223;-77
2021/09/03 11:04:13;;;;;;;3.70;3.40;;;26.00;29.40;;;;;;10533530;28;20314;-75
2021/09/03 11:09:24;;;;;;;4.27;3.97;;;26.10;29.20;;;;;;10533994;28;20228;-77
2021/09/03 11:14:29;;;;;;;4.20;3.90;;;26.10;29.20;;;;;;10527896;28;20707;-77
2021/09/03 11:19:36;;;;;;;4.10;3.70;;;26.20;29.30;;;;;;10533782;28;20235;-77
2021/09/03 11:24:42;;;;;;;3.57;3.27;;;26.30;28.70;;;;;;10533085;28;20314;-77
2021/09/03 11:29:47;;;;;;;3.37;3.17;;;26.30;28.80;;;;;;10534074;28;20237;-77
2021/09/03 11:34:58;;;;;;;3.40;3.10;;;26.30;29.20;;;;;;10530752;28;20234;-77
2021/09/03 11:40:14;;;;;;;3.80;3.50;;;26.40;28.50;;;;;;10532905;28;20223;-77
2021/09/03 11:45:21;;;;;;;3.90;3.60;;;26.40;28.80;;;;;;10521199;28;20299;-77
2021/09/03 11:50:31;;;;;;;4.07;3.77;;;26.50;28.50;;;;;;10528440;28;20693;-77
2021/09/03 11:55:36;;;;;;;4.07;3.60;;;26.50;27.90;;;;;;10525925;28;20232;-77
2021/09/03 12:00:43;;;;;;;4.17;3.13;;;26.60;28.80;;;;;;10527360;28;20219;-77
2021/09/03 12:05:49;;;;;;;3.77;3.40;;;26.60;27.80;;;;;;10525815;28;20231;-78
2021/09/03 12:10:57;;;;;;;3.50;3.23;;;26.60;27.60;;;;;;10530795;28;20219;-80
2021/09/03 12:16:02;;;;;;;3.50;3.20;;;26.70;27.20;;;;;;10534707;28;20227;-76
2021/09/03 12:21:12;;;;;;;3.53;3.27;;;26.70;27.60;;;;;;10528104;28;20714;-79
2021/09/03 12:26:20;;;;;;;3.70;3.40;;;26.60;27.20;;;;;;10527943;28;20261;-77
2021/09/03 12:31:26;;;;;;;3.07;2.80;;;26.60;27.50;;;;;;10527073;28;20227;-77
2021/09/03 12:36:32;;;;;;;2.90;2.70;;;26.60;27.20;;;;;;10537303;28;20307;-78
2021/09/03 12:41:38;;;;;;;3.13;2.93;;;26.60;26.80;;;;;;10535353;28;20227;-78
2021/09/03 12:46:44;;;;;;;3.07;2.83;;;26.60;26.60;;;;;;10535529;28;20238;-78
2021/09/03 12:51:52;;;;;;;3.43;3.20;;;26.60;27.10;;;;;;10532505;28;20629;-78
2021/09/03 12:56:55;;;;;;;3.40;3.00;;;26.60;26.20;;;;;;10532591;28;20226;-78
2021/09/03 13:01:58;;;;;;;3.30;3.00;;;26.60;27.00;;;;;;10527907;28;20220;-77
2021/09/03 13:07:06;;;;;;;3.20;3.00;;;26.60;26.60;;;;;;10550754;28;20305;-79
2021/09/03 13:12:16;;;;;;;3.07;2.87;;;26.70;26.20;;;;;;10536305;28;20227;-79
2021/09/03 13:17:19;;;;;;;4.30;3.00;;;26.70;25.50;;;;;;10540049;28;20236;-79
2021/09/03 13:22:24;;;;;;;3.40;3.10;;;26.70;26.50;;;;;;10539046;28;20232;-78
2021/09/03 13:27:27;;;;;;;3.50;3.13;;;26.70;25.90;;;;;;10541794;28;20238;-78
2021/09/03 13:32:31;;;;;;;3.07;2.87;;;26.80;26.20;;;;;;10536922;28;20223;-78
2021/09/03 13:37:35;;;;;;;3.00;2.80;;;26.80;26.20;;;;;;10540622;28;20227;-78
2021/09/03 13:42:57;;;;;;;3.10;2.90;;;26.80;25.50;;;;;;10537438;28;20311;-79
2021/09/03 13:48:01;;;;;;;3.27;3.00;;;26.90;25.70;;;;;;10540552;28;20235;-79
2021/09/03 13:53:06;;;;;;;3.23;3.00;;;26.90;25.70;;;;;;10544193;28;20227;-78
2021/09/03 13:58:13;;;;;;;2.97;2.60;;;26.90;25.30;;;;;;10538819;28;20265;-78
2021/09/03 14:03:17;;;;;;;3.20;2.90;;;26.90;24.60;;;;;;10539746;28;20232;-77
2021/09/03 14:08:28;;;;;;;2.83;2.63;;;27.00;25.60;;;;;;10534771;28;20243;-77
2021/09/03 14:13:32;;;;;;;3.27;2.97;;;27.10;25.30;;;;;;10533934;28;20224;-78
2021/09/03 14:18:35;;;;;;;3.10;2.80;;;27.10;25.30;;;;;;10537259;28;20233;-78
2021/09/03 14:23:39;;;;;;;3.60;3.10;;;27.10;24.90;;;;;;10542688;28;20235;-78
2021/09/03 14:28:44;;;;;;;3.17;2.90;;;27.10;24.60;;;;;;10538450;28;20242;-79
2021/09/03 14:33:47;;;;;;;3.83;2.73;;;27.10;24.80;;;;;;10535382;28;20235;-79
2021/09/03 14:39:01;;;;;;;3.07;2.87;;;27.10;24.70;;;;;;10545673;28;20227;-79
2021/09/03 14:44:05;;;;;;;3.37;3.17;;;27.10;24.00;;;;;;10546510;28;20557;-78
2021/09/03 14:49:09;;;;;;;3.37;3.10;;;27.10;24.70;;;;;;10537173;28;20230;-78
2021/09/03 14:54:14;;;;;;;3.30;3.07;;;27.20;24.70;;;;;;10533303;28;20223;-77
2021/09/03 14:59:18;;;;;;;3.63;3.33;;;27.20;24.90;;;;;;10528870;28;20610;-77
2021/09/03 15:04:21;;;;;;;3.30;3.10;;;27.20;25.10;;;;;;10531918;28;20253;-77
2021/09/03 15:09:27;;;;;;;3.70;3.40;;;27.20;25.10;;;;;;10535950;28;20281;-77
2021/09/03 15:14:31;;;;;;;3.13;2.93;;;27.30;24.40;;;;;;10531915;28;20590;-77
2021/09/03 15:19:34;;;;;;;3.60;3.30;;;27.30;24.80;;;;;;10536520;28;20589;-77
2021/09/03 15:24:39;;;;;;;3.13;2.77;;;27.30;24.80;;;;;;10533320;28;20739;-77
2021/09/03 15:29:42;;;;;;;3.63;3.37;;;27.30;24.60;;;;;;10535197;28;20310;-77
2021/09/03 15:34:45;;;;;;;3.40;3.10;;;27.30;24.70;;;;;;10537609;28;20227;-77
2021/09/03 15:39:50;;;;;;;3.63;3.20;;;27.40;24.80;;;;;;10532209;28;20219;-77
2021/09/03 15:44:53;;;;;;;3.30;3.00;;;27.40;24.40;;;;;;10533328;28;20683;-77
2021/09/03 15:49:56;;;;;;;3.20;2.90;;;27.40;24.40;;;;;;10533793;28;20227;-77
2021/09/03 15:55:01;;;;;;;3.43;3.00;;;27.40;24.20;;;;;;10532683;28;20224;-77
2021/09/03 16:00:06;;;;;;;3.30;3.10;;;27.30;23.80;;;;;;10531896;28;20218;-78
2021/09/03 16:05:10;;;;;;;3.10;2.90;;;27.30;24.10;;;;;;10533709;28;20228;-79
2021/09/03 16:10:14;;;;;;;3.40;3.07;;;27.30;24.10;;;;;;10531315;28;20215;-77
2021/09/03 16:15:19;;;;;;;3.20;3.00;;;27.30;23.80;;;;;;10530948;28;20261;-76
2021/09/03 16:20:22;;;;;;;3.17;2.90;;;27.30;24.00;;;;;;10531337;28;20235;-77
2021/09/03 16:25:26;;;;;;;3.10;2.90;;;27.30;24.10;;;;;;10532216;28;20759;-77
2021/09/03 16:30:29;;;;;;;3.10;2.90;;;27.30;23.90;;;;;;10530421;28;20785;-77
2021/09/03 16:35:33;;;;;;;3.20;3.00;;;27.30;24.20;;;;;;10531828;28;20601;-77
2021/09/03 16:40:38;;;;;;;3.60;3.27;;;27.30;24.80;;;;;;10533354;28;20219;-77
2021/09/03 16:45:43;;;;;;;4.00;3.37;;;27.30;24.90;;;;;;10533845;28;20219;-77
2021/09/03 16:50:46;;;;;;;4.00;3.67;;;27.30;24.70;;;;;;10534997;28;20235;-77
2021/09/03 16:55:51;;;;;;;3.97;3.57;;;27.20;24.80;;;;;;10537767;28;20239;-77
2021/09/03 17:00:54;;;;;;;3.67;3.37;;;27.10;24.60;;;;;;10538119;28;20219;-77
2021/09/03 17:05:58;;;;;;;3.60;3.30;;;27.00;24.70;;;;;;10542280;28;20728;-77
2021/09/03 17:11:02;;;;;;;3.73;3.43;;;26.90;25.10;;;;;;10538333;28;20311;-77
2021/09/03 17:16:07;;;;;;;3.60;3.30;;;26.70;25.30;;;;;;10537487;28;20226;-77
2021/09/03 17:21:10;;;;;;;3.47;3.27;;;26.60;25.30;;;;;;10538298;28;20667;-77
2021/09/03 17:26:15;;;;;;;3.50;3.20;;;26.50;25.60;;;;;;10533705;28;20335;-77
2021/09/03 17:31:19;;;;;;;3.30;3.10;;;26.30;25.90;;;;;;10528860;28;20571;-77
2021/09/03 17:36:22;;;;;;;3.60;3.30;;;26.20;26.10;;;;;;10537488;28;20289;-77
2021/09/03 17:41:27;;;;;;;4.33;4.03;;;26.10;26.30;;;;;;10534907;28;20227;-77
2021/09/03 17:46:30;;;;;;;4.20;3.90;;;25.90;26.50;;;;;;10537006;28;20220;-77
2021/09/03 17:51:34;;;;;;;3.87;3.40;;;25.70;26.40;;;;;;10534136;28;20223;-79
2021/09/03 17:56:39;;;;;;;3.10;2.90;;;25.60;26.70;;;;;;10535178;28;20239;-77
2021/09/03 18:01:42;;;;;;;3.30;3.03;;;25.40;27.00;;;;;;10532595;28;20227;-76
2021/09/03 18:06:46;;;;;;;3.57;3.30;;;25.30;27.10;;;;;;10530147;28;20228;-76
2021/09/03 18:11:50;;;;;;;3.40;3.10;;;25.20;27.30;;;;;;10531518;28;20231;-77
2021/09/03 18:16:55;;;;;;;3.20;3.00;;;25.00;27.50;;;;;;10526338;28;20231;-77
2021/09/03 18:21:58;;;;;;;3.53;2.97;;;24.90;27.60;;;;;;10525549;28;20227;-77
2021/09/03 18:27:03;;;;;;;3.17;2.97;;;24.70;27.80;;;;;;10529076;28;20223;-77
2021/09/03 18:32:07;;;;;;;3.63;3.20;;;24.60;28.40;;;;;;10523271;28;20227;-77
2021/09/03 18:37:10;;;;;;;3.50;3.20;;;24.50;28.20;;;;;;10526102;28;20228;-77
2021/09/03 18:42:14;;;;;;;3.50;2.80;;;24.30;28.20;;;;;;10529280;28;20226;-78
2021/09/03 18:47:18;;;;;;;3.13;2.90;;;24.20;28.20;;;;;;10525872;28;20231;-77
2021/09/03 18:52:21;;;;;;;3.30;3.03;;;24.10;28.10;;;;;;10524357;28;20699;-77
2021/09/03 18:57:26;;;;;;;3.10;2.83;;;23.90;27.90;;;;;;10526967;28;20280;-77
2021/09/03 19:02:30;;;;;;;3.07;2.87;;;23.80;27.90;;;;;;10529835;28;20754;-77
2021/09/03 19:07:34;;;;;;;3.50;3.20;;;23.60;27.80;;;;;;10523714;28;20235;-77
2021/09/03 19:12:40;;;;;;;3.87;3.00;;;23.50;28.00;;;;;;10524466;28;20237;-77
2021/09/03 19:17:44;;;;;;;3.17;2.97;;;23.40;28.60;;;;;;10525148;28;20226;-77
2021/09/03 19:22:47;;;;;;;5.13;3.20;;;23.30;28.30;;;;;;10524083;28;20231;-77
2021/09/03 19:27:52;;;;;;;4.33;3.50;;;23.20;28.50;;;;;;10523347;28;20258;-76
2021/09/03 19:32:55;;;;;;;3.77;3.33;;;23.10;29.40;;;;;;10521479;28;20227;-77
2021/09/03 19:37:59;;;;;;;4.33;3.90;;;23.00;28.70;;;;;;10525063;28;20220;-77
2021/09/03 19:43:04;;;;;;;5.13;3.70;;;22.90;28.70;;;;;;10522192;28;20231;-77
2021/09/03 19:48:07;;;;;;;4.67;3.73;;;22.70;28.90;;;;;;10523525;28;20228;-77
2021/09/03 19:53:11;;;;;;;4.30;3.93;;;22.40;29.00;;;;;;10522394;28;20227;-77
2021/09/03 19:58:15;;;;;;;4.80;4.10;;;22.20;29.10;;;;;;10522116;28;20226;-77
2021/09/03 20:03:18;;;;;;;5.17;4.50;;;22.00;29.60;;;;;;10523225;28;20374;-77
2021/09/03 20:08:22;;;;;;;5.17;4.13;;;21.90;29.50;;;;;;10521834;28;20235;-77
2021/09/03 20:13:27;;;;;;;4.47;4.07;;;21.70;29.50;;;;;;10521849;28;20228;-77
2021/09/03 20:18:31;;;;;;;4.90;4.40;;;21.50;30.00;;;;;;10522033;28;20269;-77
2021/09/03 20:23:34;;;;;;;4.70;4.30;;;21.40;29.90;;;;;;10520771;28;20223;-77
2021/09/03 20:28:39;;;;;;;5.23;4.33;;;21.30;30.00;;;;;;10531185;28;20223;-77
2021/09/03 20:33:42;;;;;;;4.50;4.10;;;21.20;30.30;;;;;;10530508;28;20234;-77
2021/09/03 20:38:45;;;;;;;5.23;4.50;;;21.00;30.10;;;;;;10531706;28;20333;-77
2021/09/03 20:43:50;;;;;;;5.17;4.40;;;20.90;30.20;;;;;;10527159;28;20773;-77
2021/09/03 20:48:53;;;;;;;4.10;3.80;;;20.70;30.80;;;;;;10533266;28;20300;-77
2021/09/03 20:53:56;;;;;;;4.40;4.00;;;20.50;30.40;;;;;;10529065;28;20216;-77
2021/09/03 20:59:01;;;;;;;4.57;4.17;;;20.30;30.70;;;;;;10528070;28;20223;-77
2021/09/03 21:04:04;;;;;;;3.80;3.50;;;20.30;31.40;;;;;;10529285;28;20223;-77
2021/09/03 21:09:08;;;;;;;4.57;4.10;;;20.30;31.10;;;;;;10530454;28;20254;-78
2021/09/03 21:14:12;;;;;;;4.47;4.10;;;20.20;31.00;;;;;;10528047;28;20223;-77
2021/09/03 21:19:16;;;;;;;4.60;4.20;;;20.20;31.40;;;;;;10529502;28;20306;-77
2021/09/03 21:24:19;;;;;;;5.33;4.53;;;20.20;31.20;;;;;;10528316;28;20223;-77
2021/09/03 21:29:24;;;;;;;6.37;5.87;;;20.20;31.20;;;;;;10530717;28;20588;-77
2021/09/03 21:34:27;;;;;;;7.33;6.73;;;20.10;31.70;;;;;;10525814;28;20235;-77
2021/09/03 21:39:30;;;;;;;8.00;6.37;;;20.10;31.20;;;;;;10528615;28;20220;-77
2021/09/03 21:44:35;;;;;;;17.57;10.33;;;20.00;31.20;;;;;;10530035;28;20231;-77
2021/09/03 21:49:38;;;;;;;14.03;8.27;;;19.80;31.60;;;;;;10530369;28;20231;-77
2021/09/03 21:54:42;;;;;;;11.90;7.50;;;19.60;31.30;;;;;;10529746;28;20232;-77
2021/09/03 21:59:46;;;;;;;8.40;5.60;;;19.50;31.60;;;;;;10527765;28;20216;-77
2021/09/03 22:04:49;;;;;;;5.23;4.53;;;19.40;32.00;;;;;;10526375;28;20683;-77
2021/09/03 22:09:54;;;;;;;5.17;4.67;;;19.30;31.70;;;;;;10529215;28;20251;-77
2021/09/03 22:14:59;;;;;;;4.40;4.00;;;19.30;32.00;;;;;;10530445;28;20219;-77
2021/09/03 22:20:03;;;;;;;4.87;4.23;;;19.20;32.20;;;;;;10527518;28;20223;-77
2021/09/03 22:25:08;;;;;;;4.17;3.87;;;19.20;32.00;;;;;;10526746;28;20228;-77
2021/09/03 22:30:13;;;;;;;4.70;4.30;;;19.20;32.00;;;;;;10527884;28;20223;-77
2021/09/03 22:35:16;;;;;;;4.67;3.87;;;19.10;32.50;;;;;;10529206;28;20725;-77
2021/09/03 22:40:20;;;;;;;4.50;3.97;;;19.10;32.10;;;;;;10520451;28;20591;-77
2021/09/03 22:45:24;;;;;;;4.20;3.73;;;19.10;32.10;;;;;;10525904;28;20235;-77
2021/09/03 22:50:28;;;;;;;6.07;5.53;;;19.00;32.50;;;;;;10520993;28;20228;-77
2021/09/03 22:55:31;;;;;;;5.60;4.80;;;19.00;32.30;;;;;;10524938;28;20231;-77
2021/09/03 23:00:36;;;;;;;6.00;4.97;;;19.00;32.50;;;;;;10528413;28;20238;-77
2021/09/03 23:05:39;;;;;;;5.83;4.63;;;18.90;32.80;;;;;;10529123;28;20234;-77
2021/09/03 23:10:42;;;;;;;4.57;4.20;;;18.90;32.50;;;;;;10530553;28;20230;-77
2021/09/03 23:15:47;;;;;;;4.13;3.73;;;18.80;32.50;;;;;;10522893;28;20254;-77
2021/09/03 23:20:50;;;;;;;4.57;4.17;;;18.80;32.80;;;;;;10526188;28;20628;-77
2021/09/03 23:25:53;;;;;;;4.37;4.07;;;18.80;32.60;;;;;;10527070;28;20247;-77
2021/09/03 23:30:58;;;;;;;4.30;3.90;;;18.70;32.60;;;;;;10527204;28;20243;-77
2021/09/03 23:36:01;;;;;;;3.87;3.40;;;18.60;32.90;;;;;;10527597;28;20219;-77
2021/09/03 23:41:04;;;;;;;4.17;3.80;;;18.60;32.60;;;;;;10526675;28;20226;-77
2021/09/03 23:46:09;;;;;;;4.00;3.70;;;18.60;32.60;;;;;;10521963;28;20228;-77
2021/09/03 23:51:12;;;;;;;4.13;3.83;;;18.50;32.90;;;;;;10526653;28;20707;-77
2021/09/03 23:56:16;;;;;;;6.00;3.83;;;18.40;32.70;;;;;;10520842;28;20627;-77
